Overview Statistics Trail Chart Weather Telemetry Raw packets
 

This is the latest recevied weather packets stored in our database for station/object WA1NHP. If no packets are shown the sender has not sent any weather packets the latest 10 day(s).

<< 54 55 56 57 58 >>
Time Temp. Humidity Pressure Rain* Wind** Luminosity Snow
1787789644 18.33° C 90% 1023.9 hPa 0 mm - 0 W/m² -
1787789044 18.33° C 89% 1023.9 hPa 0 mm - 0 W/m² -
1787788444 18.89° C 89% 1023.9 hPa 0 mm - 0 W/m² -
1787787844 19.44° C 88% 1023.9 hPa 0 mm - 0 W/m² -
1787787244 19.44° C 87% 1023.9 hPa 0 mm - 0 W/m² -
1787786648 19.44° C 88% 1023.9 hPa 0 mm - 5 W/m² -
1787786044 20° C 87% 1023.9 hPa 0 mm - 9 W/m² -
1787785444 20° C 84% 1023.9 hPa 0 mm - 9 W/m² -
1787784843 20.56° C 84% 1023.9 hPa 0 mm - 12 W/m² -
1787784244 21.11° C 79% 1023.9 hPa 0 mm - 14 W/m² -
1787783644 21.11° C 80% 1023.9 hPa 0 mm - 16 W/m² -
1787783044 21.11° C 80% 1023.9 hPa 0 mm - 19 W/m² -
1787782444 21.11° C 79% 1023.9 hPa 0 mm - 28 W/m² -
1787781844 21.67° C 77% 1023.9 hPa 0 mm - 19 W/m² -
1787781244 22.22° C 74% 1023.9 hPa 0 mm - 18 W/m² -
1787780645 22.78° C 72% 1023.9 hPa 0 mm - 42 W/m² -
1787780044 22.78° C 72% 1023.9 hPa 0 mm - 93 W/m² -
1787779444 23.33° C 73% 1023.9 hPa 0 mm - 84 W/m² -
1787778844 23.33° C 70% 1023.9 hPa 0 mm - 118 W/m² -
1787778243 23.89° C 70% 1023.9 hPa 0 mm - 139 W/m² -
1787777644 23.33° C 71% 1023.9 hPa 0 mm - 120 W/m² -
1787777044 23.33° C 69% 1023.9 hPa 0 mm - 174 W/m² -
1787776443 22.78° C 67% 1023.9 hPa 0 mm - 107 W/m² -
1787775843 22.22° C 75% 1023.9 hPa 0 mm - 445 W/m² -
1787775244 22.22° C 73% 1023.9 hPa 0 mm - 54 W/m² -

* Rain latest hour (hover to see other rain measurements)
** Current wind speed in m/s (hover to see current wind gust speed)